首页
METAR-TAF:

METAR-TAF

机场 :

金奈国际机场

金奈, 印度

纬度: 13-00N, 经度: 080-11E, 海拔: 10米

当前天气观测

该预报发布于35分钟前的00:30 UTC
风速3节,风向西转西南
温度 23°C
湿度 89%
气压 1010 hPa
能見度: 1800
少量云层高于2000英尺
轻雾

METAR: VOMM 130030Z 25003KT 1800 BR FEW020 23/21 Q1010 TEMPO 1500 BR

时间: 06:35 (01:05 UTC)

预报

该预报发布于2小时和5分钟前的23:00 UTC
预报有效从13日的 00点(UTC)到 14日的 06点(UTC)
风速节,风向
能見度: 3000
少量云层高于1800英尺
散云层高于10000英尺
短暂存在
从 13日的 00点(UTC)到 13日的 03点(UTC)
能見度: 1500
轻雾
成为
从 13日的 05点(UTC)到 13日的 07点(UTC)
风速10节,风向东北
能見度: 5000
短暂存在
从 13日的 12点(UTC)到 13日的 18点(UTC)
散云层高于1800英尺
多云层高于10000英尺
成为
从 13日的 15点(UTC)到 13日的 16点(UTC)
风速2节,风向多变
能見度: 3000
短暂存在
从 13日的 21点(UTC)到 14日的 03点(UTC)
能見度: 2000
散云层高于1500英尺
少量云层高于2500英尺, 积雨云.
多云层高于8000英尺

TAF: VOMM 122300Z 1300/1406 00000KT 3000 HZ FEW018 SCT100 TEMPO 1300/1303 1500 BR BECMG 1305/1307 04010KT 5000 HZ TEMPO 1312/1318 SCT018 FEW025TCU/CB BKN100 BECMG 1315/1316 VRB02KT 3000 HZ TEMPO 1321/1403 2000 -TSRA/RA SCT015 FEW025CB BKN080

超过4000个机场的气象观测和天气预报(METAR&TAF报告)。

可查询的气象台以黄色和红色小点在地图上表示。

将鼠标移到小点上方,可查看气象台名称。

然后点击查看天气观测和预报。

如需切换地图:点击带黑十字的绿色按钮放大地图;点击带横线的绿色按钮缩小地图;或者点击绿色箭头查看邻近地区的地图。


METAR-TAF: